Terminal Aerodrome Forecast
Issued by NWS

Home | Current Version | Previous Version | Text Only | Print | Product List | Glossary On
Versions: 1 2 3 4 5 6 7 8 9 10 11 12 13 14 15
000
FTUS44 KLUB 280520
TAFCDS
TAF
KCDS 280520Z 2806/2906 13011KT P6SM SCT040 BKN150
      TEMPO 2806/2809 VRB20G30KT 5SM TSRA SCT010 BKN030CB
     FM280900 14009KT 5SM BR SCT005 BKN025
     FM281700 17011KT P6SM SCT030 BKN150=

USA.gov is the U.S. government's official web portal to all federal, state and local government web resources and services.